Time;durP1;ratioP1;P1;durP2;ratioP2;P2;SDS_P1;SDS_P2;PMS_P1;PMS_P2;Temp;Humidity;BMP_temperature;BMP_pressure;BME280_temperature;BME280_humidity;BME280_pressure;Samples;Min_cycle;Max_cycle;Signal;HPM_P1;HPM_P2
2021/08/09 00:00:40;;;;;;;6.20;3.90;;;;;;;17.18;71.34;100179.47;154690;1093;103142;-79
2021/08/09 00:03:42;;;;;;;5.55;3.65;;;;;;;17.18;71.63;100174.08;154655;1098;103240;-78
2021/08/09 00:06:46;;;;;;;6.15;3.40;;;;;;;17.20;71.75;100193.59;154608;1093;103130;-77
2021/08/09 00:09:48;;;;;;;4.37;3.73;;;;;;;17.26;71.79;100205.45;154567;1098;103242;-77
2021/08/09 00:12:51;;;;;;;4.40;3.70;;;;;;;17.26;71.99;100209.00;154584;1093;104672;-77
2021/08/09 00:15:57;;;;;;;4.63;4.13;;;;;;;17.31;71.79;100210.27;154567;1093;103192;-78
2021/08/09 00:19:00;;;;;;;5.30;4.10;;;;;;;17.35;71.90;100208.83;154551;1098;103182;-77
2021/08/09 00:22:03;;;;;;;5.43;4.00;;;;;;;17.42;72.07;100199.75;154552;1093;103192;-78
2021/08/09 00:25:08;;;;;;;5.07;3.93;;;;;;;17.51;72.25;100188.78;154567;1098;103101;-81
2021/08/09 00:28:10;;;;;;;6.87;4.07;;;;;;;17.55;72.14;100180.11;154652;1098;103117;-80
2021/08/09 00:31:13;;;;;;;4.97;4.43;;;;;;;17.60;72.23;100182.19;154700;1093;103572;-78
2021/08/09 00:34:16;;;;;;;4.87;4.10;;;;;;;17.64;72.27;100186.15;154556;1093;103208;-78
2021/08/09 00:37:19;;;;;;;4.40;3.95;;;;;;;17.65;72.41;100180.55;154184;1098;103164;-77
2021/08/09 00:40:23;;;;;;;5.63;3.80;;;;;;;17.66;72.52;100157.92;154603;1098;103223;-77
2021/08/09 00:43:26;;;;;;;4.33;3.60;;;;;;;17.70;72.35;100149.44;154553;1093;103121;-77
2021/08/09 00:46:31;;;;;;;4.23;3.73;;;;;;;17.74;72.35;100142.59;154610;1093;103123;-77
2021/08/09 00:49:35;;;;;;;4.05;3.45;;;;;;;17.76;72.55;100146.74;154578;1093;103265;-78
2021/08/09 00:52:40;;;;;;;6.25;3.73;;;;;;;17.77;72.50;100147.59;154661;1093;103225;-81
2021/08/09 00:55:46;;;;;;;5.43;3.73;;;;;;;17.75;72.66;100137.00;154681;1098;103187;-80
2021/08/09 00:58:49;;;;;;;5.15;3.50;;;;;;;17.76;72.62;100149.44;154641;1098;103198;-79
2021/08/09 01:01:52;;;;;;;4.13;3.28;;;;;;;17.79;72.83;100156.32;154280;1098;103184;-80
2021/08/09 01:04:55;;;;;;;3.60;3.10;;;;;;;17.81;72.72;100170.44;154290;1098;103222;-78
2021/08/09 01:08:10;;;;;;;4.45;3.65;;;;;;;17.83;72.81;100176.47;154602;1093;103192;-77
2021/08/09 01:11:23;;;;;;;6.07;4.23;;;;;;;17.83;72.61;100149.48;154556;1098;103122;-79
2021/08/09 01:14:50;;;;;;;8.70;4.33;;;;;;;17.82;72.88;100147.80;154117;1098;103296;-79
2021/08/09 01:17:58;;;;;;;3.30;3.00;;;;;;;17.79;72.96;100159.84;154192;1093;103192;-78
2021/08/09 01:21:02;;;;;;;5.80;3.20;;;;;;;17.76;72.85;100154.84;154170;1093;103254;-78
2021/08/09 01:24:19;;;;;;;4.27;3.00;;;;;;;17.72;72.93;100156.28;154587;1093;103110;-79
2021/08/09 01:27:29;;;;;;;6.00;3.47;;;;;;;17.66;73.07;100149.83;154551;1098;103118;-78
2021/08/09 01:30:33;;;;;;;3.87;3.47;;;;;;;17.61;72.92;100152.32;154028;1093;103179;-78
2021/08/09 01:33:39;;;;;;;4.30;3.70;;;;;;;17.56;73.17;100154.78;154566;1098;103198;-79
2021/08/09 01:36:45;;;;;;;5.80;3.40;;;;;;;17.49;72.80;100164.70;154176;1098;103267;-79
2021/08/09 01:39:49;;;;;;;3.68;3.10;;;;;;;17.39;73.18;100169.64;154585;1093;103307;-78
2021/08/09 01:42:52;;;;;;;3.43;3.00;;;;;;;17.33;73.23;100154.27;154136;1098;103134;-78
2021/08/09 01:45:59;;;;;;;4.93;3.60;;;;;;;17.29;73.05;100174.58;154576;1098;103193;-80
2021/08/09 01:49:04;;;;;;;4.70;3.65;;;;;;;17.25;73.25;100180.36;154129;1100;103179;-77
2021/08/09 01:52:09;;;;;;;4.87;3.80;;;;;;;17.21;73.30;100181.78;154626;1093;103224;-74
2021/08/09 01:55:15;;;;;;;4.90;3.60;;;;;;;17.11;73.13;100173.23;154583;1098;103140;-76
2021/08/09 01:58:23;;;;;;;5.00;3.50;;;;;;;17.05;73.40;100168.61;154549;1098;103120;-76
2021/08/09 02:01:28;;;;;;;4.35;3.48;;;;;;;17.02;73.49;100163.63;154575;1093;103128;-77
2021/08/09 02:04:31;;;;;;;4.83;3.67;;;;;;;16.97;73.26;100166.90;154639;1093;103153;-80
2021/08/09 02:07:36;;;;;;;5.50;3.80;;;;;;;16.92;73.40;100173.91;154307;1098;103166;-80
2021/08/09 02:10:40;;;;;;;5.07;3.80;;;;;;;16.90;73.54;100184.05;154697;1098;103556;-80
2021/08/09 02:13:50;;;;;;;5.00;3.70;;;;;;;16.86;73.73;100192.55;154676;1093;103390;-81
2021/08/09 02:17:03;;;;;;;4.43;3.78;;;;;;;16.92;73.80;100200.86;154716;1093;103183;-80
2021/08/09 02:20:18;;;;;;;4.80;3.70;;;;;;;17.01;73.74;100199.69;154699;1093;103109;-77
2021/08/09 02:23:29;;;;;;;7.75;4.30;;;;;;;17.07;73.75;100205.14;154579;1093;103275;-77
2021/08/09 02:26:36;;;;;;;4.93;4.20;;;;;;;17.09;73.59;100210.34;154015;1100;103133;-77
2021/08/09 02:29:46;;;;;;;5.50;4.10;;;;;;;17.12;73.92;100212.63;154528;1098;103506;-77
2021/08/09 02:32:52;;;;;;;5.55;3.90;;;;;;;17.15;74.04;100209.55;153986;1101;103248;-77
2021/08/09 02:35:57;;;;;;;6.70;3.88;;;;;;;17.19;74.03;100218.08;154215;1098;103173;-79
2021/08/09 02:39:00;;;;;;;5.80;4.20;;;;;;;17.21;73.95;100216.84;154203;1093;103268;-79
2021/08/09 02:42:03;;;;;;;5.23;4.23;;;;;;;17.21;73.87;100227.63;154728;1098;103490;-79
2021/08/09 02:45:08;;;;;;;5.63;4.45;;;;;;;17.20;73.82;100236.73;154265;1098;103177;-79
2021/08/09 02:48:14;;;;;;;6.23;4.23;;;;;;;17.15;73.95;100244.59;154271;1093;103147;-79
2021/08/09 02:51:19;;;;;;;6.37;4.20;;;;;;;17.11;73.91;100254.11;154595;1093;103107;-79
2021/08/09 02:54:24;;;;;;;6.48;3.73;;;;;;;17.11;74.12;100258.65;154595;1094;103250;-78
2021/08/09 02:57:29;;;;;;;5.63;4.23;;;;;;;17.12;74.16;100255.77;154281;1098;103222;-78
2021/08/09 03:00:32;;;;;;;7.10;4.70;;;;;;;17.15;74.18;100270.70;153991;1100;103637;-78
2021/08/09 03:03:36;;;;;;;6.03;4.77;;;;;;;17.13;74.25;100284.41;154144;1098;103126;-81
2021/08/09 03:06:40;;;;;;;6.88;4.93;;;;;;;17.14;74.19;100290.63;154341;1093;103119;-80
2021/08/09 03:09:44;;;;;;;6.58;4.65;;;;;;;17.14;74.38;100280.66;154310;1093;103564;-81
2021/08/09 03:12:56;;;;;;;5.47;3.93;;;;;;;17.19;74.37;100293.58;154348;1093;103161;-81
2021/08/09 03:16:00;;;;;;;9.05;4.63;;;;;;;17.21;74.42;100297.73;154675;1098;103304;-81
2021/08/09 03:19:02;;;;;;;8.30;4.47;;;;;;;17.24;74.42;100289.27;154283;1098;103506;-80
2021/08/09 03:22:05;;;;;;;5.83;4.40;;;;;;;17.25;74.38;100290.09;154269;1093;103177;-80
2021/08/09 03:25:10;;;;;;;6.83;3.93;;;;;;;17.22;74.40;100299.39;154690;1093;103214;-78
2021/08/09 03:28:13;;;;;;;5.40;4.20;;;;;;;17.23;74.17;100300.24;154183;1098;103135;-80
2021/08/09 03:31:17;;;;;;;7.03;4.37;;;;;;;17.21;74.63;100300.43;154661;1098;103104;-78
2021/08/09 03:34:20;;;;;;;6.53;4.37;;;;;;;17.19;74.40;100298.97;153938;1100;103183;-77
2021/08/09 03:37:24;;;;;;;6.63;4.20;;;;;;;17.14;74.32;100302.23;154556;1093;103123;-79
2021/08/09 03:40:27;;;;;;;7.90;4.40;;;;;;;17.09;74.40;100299.31;154120;1093;103256;-79
2021/08/09 03:43:30;;;;;;;5.00;3.80;;;;;;;17.08;74.81;100308.41;154600;1093;103122;-78
2021/08/09 03:46:33;;;;;;;5.47;3.70;;;;;;;17.09;74.73;100320.88;154593;1093;103187;-78
2021/08/09 03:49:36;;;;;;;6.00;3.70;;;;;;;17.08;74.80;100320.02;154559;1098;103224;-77
2021/08/09 03:52:47;;;;;;;4.95;4.25;;;;;;;17.08;74.53;100316.50;154599;1098;103121;-79
2021/08/09 03:55:50;;;;;;;8.30;4.50;;;;;;;17.06;74.66;100321.25;154716;1098;103203;-79
2021/08/09 03:58:52;;;;;;;5.53;4.10;;;;;;;17.05;74.54;100315.03;154686;1098;103256;-80
2021/08/09 04:01:56;;;;;;;8.40;4.20;;;;;;;17.10;74.83;100327.09;154592;1098;103132;-79
2021/08/09 04:05:00;;;;;;;5.97;3.90;;;;;;;17.19;74.62;100323.23;154187;1098;103112;-78
2021/08/09 04:08:03;;;;;;;4.30;3.45;;;;;;;17.25;74.59;100325.97;154646;1098;103103;-80
2021/08/09 04:11:06;;;;;;;5.38;3.63;;;;;;;17.33;74.68;100327.70;154662;1093;103192;-79
2021/08/09 04:14:09;;;;;;;4.50;3.67;;;;;;;17.36;74.56;100324.63;154349;1093;103506;-78
2021/08/09 04:17:12;;;;;;;5.67;4.03;;;;;;;17.41;74.72;100316.75;154602;1093;103184;-77
2021/08/09 04:20:15;;;;;;;6.93;3.37;;;;;;;17.53;74.73;100327.83;154150;1100;103198;-79
2021/08/09 04:23:18;;;;;;;4.90;3.10;;;;;;;17.69;74.38;100320.45;154446;1093;103129;-82
2021/08/09 04:26:21;;;;;;;6.38;3.45;;;;;;;17.82;74.88;100326.80;154665;1098;103281;-80
2021/08/09 04:29:24;;;;;;;4.03;3.53;;;;;;;17.96;74.34;100338.52;154258;1099;104731;-78
2021/08/09 04:32:36;;;;;;;5.13;3.60;;;;;;;18.11;74.65;100345.64;154541;1094;103189;-81
2021/08/09 04:35:39;;;;;;;5.00;3.77;;;;;;;18.19;74.30;100340.92;154688;1098;103175;-82
2021/08/09 04:38:42;;;;;;;3.80;3.30;;;;;;;18.32;74.13;100340.16;154685;1098;103556;-83
2021/08/09 04:41:45;;;;;;;4.10;3.05;;;;;;;18.47;74.09;100344.56;154285;1098;103267;-79
2021/08/09 04:44:48;;;;;;;4.37;3.17;;;;;;;18.64;73.98;100348.56;154314;1093;103128;-81
2021/08/09 04:47:51;;;;;;;5.33;3.43;;;;;;;18.78;74.08;100346.72;154247;1093;103556;-81
2021/08/09 04:50:54;;;;;;;4.50;3.60;;;;;;;18.93;73.81;100343.88;154722;1093;103144;-80
2021/08/09 04:53:57;;;;;;;4.70;3.50;;;;;;;19.08;73.53;100347.22;154694;1098;103128;-82
2021/08/09 04:57:00;;;;;;;5.07;3.07;;;;;;;19.20;73.51;100347.42;154317;1098;103197;-79
2021/08/09 05:00:05;;;;;;;4.45;3.35;;;;;;;19.32;73.39;100353.05;154247;1098;103158;-81
2021/08/09 05:03:10;;;;;;;3.77;2.60;;;;;;;19.47;73.04;100358.25;154666;1098;103649;-78
2021/08/09 05:06:14;;;;;;;3.18;2.50;;;;;;;19.63;73.07;100349.72;154694;1098;103572;-79
2021/08/09 05:09:19;;;;;;;4.10;2.60;;;;;;;19.76;72.78;100348.88;154592;1098;103109;-78
2021/08/09 05:12:22;;;;;;;4.03;2.90;;;;;;;19.92;72.63;100359.27;154630;1093;103184;-80
2021/08/09 05:15:31;;;;;;;4.57;2.70;;;;;;;20.02;72.22;100358.00;154693;1098;103179;-81
2021/08/09 05:18:34;;;;;;;4.07;2.53;;;;;;;20.15;72.29;100368.77;154673;1098;103601;-78
2021/08/09 05:21:38;;;;;;;4.57;2.50;;;;;;;20.25;72.19;100361.04;154588;1093;103218;-78
2021/08/09 05:24:41;;;;;;;5.05;2.20;;;;;;;20.34;71.72;100357.05;154703;1093;103128;-79
2021/08/09 05:27:44;;;;;;;3.60;2.40;;;;;;;20.47;71.83;100366.16;154851;1098;103186;-79
2021/08/09 05:30:48;;;;;;;4.00;2.20;;;;;;;20.57;71.51;100366.52;154815;1098;103240;-77
2021/08/09 05:33:51;;;;;;;3.60;2.43;;;;;;;20.64;71.34;100359.22;154184;1098;103195;-77
2021/08/09 05:36:55;;;;;;;4.88;2.85;;;;;;;20.75;71.36;100363.96;154140;1093;103195;-77
2021/08/09 05:39:58;;;;;;;3.73;2.15;;;;;;;20.83;71.08;100371.01;154200;1098;103211;-79
2021/08/09 05:43:01;;;;;;;3.53;2.20;;;;;;;20.84;70.46;100371.83;154656;1093;103255;-78
2021/08/09 05:46:04;;;;;;;2.58;1.98;;;;;;;20.78;70.30;100374.38;154244;1093;103115;-78
2021/08/09 05:49:09;;;;;;;2.18;1.88;;;;;;;20.79;69.75;100376.03;154601;1098;103129;-78
2021/08/09 05:52:20;;;;;;;2.67;2.00;;;;;;;20.77;69.85;100370.00;154824;1093;103100;-78
2021/08/09 05:55:25;;;;;;;2.25;1.65;;;;;;;20.82;69.48;100373.93;154229;1093;103191;-78
2021/08/09 05:58:29;;;;;;;3.03;1.80;;;;;;;20.84;69.53;100377.25;154187;1093;103286;-78
2021/08/09 06:01:33;;;;;;;3.20;1.97;;;;;;;20.86;69.50;100380.58;154547;1093;103576;-78
2021/08/09 06:04:36;;;;;;;2.67;1.83;;;;;;;20.87;69.25;100387.68;154023;1100;103177;-79
2021/08/09 06:07:39;;;;;;;3.38;1.80;;;;;;;20.80;69.34;100382.28;154209;1099;103145;-78
2021/08/09 06:10:42;;;;;;;3.50;1.95;;;;;;;20.75;68.83;100399.21;154209;1094;103153;-77
2021/08/09 06:13:48;;;;;;;2.03;1.70;;;;;;;20.70;69.04;100396.31;154620;1093;103231;-74
2021/08/09 06:16:52;;;;;;;2.40;1.70;;;;;;;20.69;68.74;100389.23;154682;1093;103208;-77
2021/08/09 06:19:55;;;;;;;3.83;2.00;;;;;;;20.73;68.71;100393.17;154650;1098;103096;-75
2021/08/09 06:23:01;;;;;;;2.33;1.80;;;;;;;20.74;67.69;100404.84;154752;1094;103211;-77
2021/08/09 06:26:04;;;;;;;3.30;1.73;;;;;;;20.73;68.42;100400.48;154699;1093;103166;-79
2021/08/09 06:29:08;;;;;;;2.37;2.00;;;;;;;20.71;67.66;100400.70;154696;1094;103378;-81
2021/08/09 06:32:12;;;;;;;5.60;1.63;;;;;;;20.64;66.75;100393.64;154756;1093;103191;-81
2021/08/09 06:35:14;;;;;;;2.67;1.70;;;;;;;20.60;67.28;100404.09;154324;1093;103174;-79
2021/08/09 06:38:18;;;;;;;3.78;1.65;;;;;;;20.58;67.77;100400.73;154291;1098;103192;-85
2021/08/09 06:41:21;;;;;;;3.60;1.60;;;;;;;20.64;67.83;100405.31;154765;1093;103129;-80
2021/08/09 06:44:34;;;;;;;2.75;1.70;;;;;;;20.67;67.43;100404.89;154329;1098;103190;-81
2021/08/09 06:47:37;;;;;;;1.97;1.60;;;;;;;20.67;67.47;100412.17;154652;1093;103604;-79
2021/08/09 06:50:42;;;;;;;2.90;1.40;;;;;;;20.64;66.88;100410.73;154679;1098;103114;-80
2021/08/09 06:53:45;;;;;;;1.98;1.55;;;;;;;20.71;65.82;100422.39;154702;1098;103186;-77
2021/08/09 06:56:48;;;;;;;1.87;1.57;;;;;;;20.75;64.88;100431.75;154661;1098;103128;-79
2021/08/09 06:59:51;;;;;;;3.67;1.50;;;;;;;20.75;66.57;100431.75;154615;1098;103217;-80
2021/08/09 07:02:54;;;;;;;2.47;1.60;;;;;;;20.79;65.85;100427.56;154328;1093;103147;-79
2021/08/09 07:05:57;;;;;;;2.63;1.47;;;;;;;20.78;64.47;100423.20;154673;1093;103122;-80
2021/08/09 07:09:03;;;;;;;2.23;1.53;;;;;;;20.79;64.64;100424.84;154848;1098;103125;-79
2021/08/09 07:12:06;;;;;;;5.07;1.83;;;;;;;20.84;65.61;100429.61;154575;1093;103569;-80
2021/08/09 07:15:13;;;;;;;3.07;1.50;;;;;;;20.90;65.42;100433.34;154415;1092;103249;-79
2021/08/09 07:18:16;;;;;;;2.23;1.50;;;;;;;20.96;65.32;100435.20;154478;1098;103121;-79
2021/08/09 07:21:19;;;;;;;1.50;1.30;;;;;;;20.95;64.96;100442.48;154856;1098;103553;-79
2021/08/09 07:24:22;;;;;;;1.98;1.45;;;;;;;20.95;63.89;100439.78;154311;1098;103122;-80
2021/08/09 07:27:25;;;;;;;1.95;1.70;;;;;;;20.92;61.56;100445.66;154561;1098;103196;-77
2021/08/09 07:30:30;;;;;;;2.55;1.50;;;;;;;20.91;64.57;100443.16;154610;1098;103253;-77
2021/08/09 07:33:38;;;;;;;2.33;1.50;;;;;;;20.98;64.38;100449.38;154824;1093;103126;-78
2021/08/09 07:36:41;;;;;;;2.63;1.57;;;;;;;21.06;64.54;100457.27;154347;1098;103218;-78
2021/08/09 07:39:44;;;;;;;2.27;1.57;;;;;;;21.09;64.06;100464.13;154215;1098;103784;-80
2021/08/09 07:42:47;;;;;;;3.17;1.50;;;;;;;21.06;62.14;100459.15;154398;1098;103399;-82
2021/08/09 07:45:50;;;;;;;2.43;1.47;;;;;;;21.07;63.32;100456.19;154751;1093;103188;-79
2021/08/09 07:48:54;;;;;;;2.63;1.53;;;;;;;21.16;62.39;100457.61;154718;1098;103116;-81
2021/08/09 07:51:58;;;;;;;1.90;1.40;;;;;;;21.20;62.04;100457.19;154699;1093;103193;-77
2021/08/09 07:55:01;;;;;;;2.20;1.53;;;;;;;21.23;62.98;100448.59;154637;1098;103193;-79
2021/08/09 07:58:05;;;;;;;2.00;1.58;;;;;;;21.26;62.38;100453.59;154760;1098;103119;-80
2021/08/09 08:01:09;;;;;;;3.85;1.65;;;;;;;21.32;62.71;100444.56;154763;1093;103276;-80
2021/08/09 08:04:15;;;;;;;1.77;1.43;;;;;;;21.37;61.31;100461.04;154647;1098;103196;-78
2021/08/09 08:07:18;;;;;;;2.65;1.50;;;;;;;21.41;62.82;100464.15;154646;1093;103237;-78
2021/08/09 08:10:24;;;;;;;2.80;1.60;;;;;;;21.43;61.08;100464.76;154539;1093;103122;-77
2021/08/09 08:13:28;;;;;;;2.27;1.50;;;;;;;21.46;61.46;100467.05;154694;1093;103095;-81
2021/08/09 08:16:31;;;;;;;2.20;1.60;;;;;;;21.49;61.72;100456.58;154954;1093;103254;-78
2021/08/09 08:19:35;;;;;;;2.23;1.50;;;;;;;21.52;61.13;100472.45;154663;1093;103209;-80
2021/08/09 08:22:38;;;;;;;3.77;1.50;;;;;;;21.56;60.18;100473.66;154415;1093;103251;-78
2021/08/09 08:25:42;;;;;;;2.17;1.47;;;;;;;21.55;61.36;100471.98;154398;1098;103153;-83
2021/08/09 08:28:44;;;;;;;2.35;1.50;;;;;;;21.58;60.35;100475.34;154697;1098;103134;-80
2021/08/09 08:31:47;;;;;;;1.97;1.60;;;;;;;21.60;60.44;100465.91;154293;1098;103182;-81
2021/08/09 08:34:51;;;;;;;2.23;1.30;;;;;;;21.62;60.63;100473.84;154341;1094;103198;-79
2021/08/09 08:37:55;;;;;;;1.77;1.30;;;;;;;21.67;60.15;100474.00;154704;1098;103307;-83
2021/08/09 08:41:00;;;;;;;2.47;1.50;;;;;;;21.70;59.33;100473.56;154228;1098;103192;-77
2021/08/09 08:44:05;;;;;;;3.30;2.43;;;;;;;21.74;60.68;100474.78;154225;1098;103134;-85
2021/08/09 08:47:11;;;;;;;2.35;1.50;;;;;;;21.79;59.86;100483.11;154748;1093;103470;-82
2021/08/09 08:50:17;;;;;;;2.75;1.55;;;;;;;21.84;59.91;100479.72;154631;1093;103151;-81
2021/08/09 08:53:21;;;;;;;2.40;1.20;;;;;;;21.82;59.46;100481.83;154288;1098;103123;-83
2021/08/09 08:56:24;;;;;;;2.07;1.30;;;;;;;21.90;59.03;100493.26;155596;1098;103125;-76
2021/08/09 08:59:27;;;;;;;1.30;1.10;;;;;;;21.96;59.08;100486.11;154664;1093;103187;-77
2021/08/09 09:02:35;;;;;;;1.63;1.30;;;;;;;22.05;59.46;100486.64;154564;1098;103188;-79
2021/08/09 09:05:38;;;;;;;2.27;1.27;;;;;;;22.09;57.00;100493.28;154656;1094;103233;-78
2021/08/09 09:08:43;;;;;;;3.45;1.50;;;;;;;22.11;58.59;100491.17;154575;1093;103106;-80
2021/08/09 09:11:46;;;;;;;1.45;1.10;;;;;;;22.16;58.66;100494.88;154606;1098;103125;-77
2021/08/09 09:15:02;;;;;;;1.70;1.17;;;;;;;22.22;58.72;100495.88;154801;1093;103127;-77
2021/08/09 09:18:04;;;;;;;1.40;1.10;;;;;;;22.23;56.57;100502.99;154619;1098;103280;-76
2021/08/09 09:21:12;;;;;;;1.43;1.23;;;;;;;22.28;57.97;100497.73;154633;1093;103119;-80
2021/08/09 09:24:16;;;;;;;1.90;1.30;;;;;;;22.28;57.67;100502.34;154827;1098;103107;-79
2021/08/09 09:27:28;;;;;;;1.85;1.30;;;;;;;22.26;55.35;100505.28;154672;1098;103183;-82
2021/08/09 09:30:32;;;;;;;1.40;1.10;;;;;;;22.27;57.96;100506.95;154792;1093;103109;-85
2021/08/09 09:33:35;;;;;;;2.00;1.40;;;;;;;22.35;58.31;100503.94;154681;1098;103292;-79
2021/08/09 09:36:50;;;;;;;1.90;1.40;;;;;;;22.46;58.20;100501.52;154703;1098;103220;-84
2021/08/09 09:39:53;;;;;;;1.85;1.10;;;;;;;22.50;57.81;100500.86;155059;1098;103129;-80
2021/08/09 09:42:58;;;;;;;2.17;1.40;;;;;;;22.55;54.56;100502.89;154854;1093;103188;-77
2021/08/09 09:46:00;;;;;;;3.50;2.63;;;;;;;22.57;57.63;100514.37;154745;1098;103104;-85
2021/08/09 09:49:06;;;;;;;3.50;2.17;;;;;;;22.64;57.40;100506.97;154748;1098;103287;-78
2021/08/09 09:52:08;;;;;;;5.57;3.10;;;;;;;22.69;57.45;100498.98;154665;1093;103203;-78
2021/08/09 09:55:15;;;;;;;1.93;1.57;;;;;;;22.71;57.08;100491.42;154493;1093;103566;-77
2021/08/09 09:58:19;;;;;;;1.63;1.30;;;;;;;22.72;55.66;100495.78;154829;1098;103436;-80
2021/08/09 10:01:25;;;;;;;1.97;1.20;;;;;;;22.77;56.08;100494.27;154851;1098;103463;-80
2021/08/09 10:04:28;;;;;;;1.63;1.20;;;;;;;22.82;56.60;100497.97;155257;1098;103358;-79
2021/08/09 10:07:34;;;;;;;1.47;1.30;;;;;;;22.82;53.75;100514.29;154907;1098;103110;-78
2021/08/09 10:10:38;;;;;;;1.93;1.37;;;;;;;22.81;55.73;100496.32;155171;1098;103154;-81
2021/08/09 10:13:43;;;;;;;1.50;1.40;;;;;;;22.90;55.60;100504.98;155328;1093;103342;-76
2021/08/09 10:16:46;;;;;;;2.63;1.75;;;;;;;22.86;52.55;100507.33;154399;1098;103146;-77
2021/08/09 10:19:51;;;;;;;1.40;1.30;;;;;;;22.83;51.39;100506.98;154489;1098;103252;-77
2021/08/09 10:22:59;;;;;;;1.30;1.20;;;;;;;22.82;52.77;100502.58;154120;1101;103192;-81
2021/08/09 10:26:01;;;;;;;2.10;1.20;;;;;;;22.88;54.46;100501.66;154517;1101;103124;-82
2021/08/09 10:29:08;;;;;;;3.17;2.00;;;;;;;22.99;54.93;100498.17;154082;1101;103183;-81
2021/08/09 10:32:24;;;;;;;1.70;1.50;;;;;;;23.14;52.67;100500.53;154179;1101;103467;-77
2021/08/09 10:36:02;;;;;;;1.87;1.30;;;;;;;23.26;54.53;100501.40;155004;1098;103830;-83
2021/08/09 10:39:05;;;;;;;2.37;1.10;;;;;;;23.33;54.20;100498.59;154788;1098;103155;-77
2021/08/09 10:42:07;;;;;;;1.83;1.40;;;;;;;23.45;54.21;100495.91;154681;1098;103135;-78
2021/08/09 10:45:12;;;;;;;1.67;1.20;;;;;;;23.55;54.23;100493.44;154441;1094;103116;-80
2021/08/09 10:48:16;;;;;;;2.40;1.33;;;;;;;23.64;53.25;100494.77;154750;1093;103143;-76
2021/08/09 10:51:39;;;;;;;3.75;1.30;;;;;;;23.64;54.12;100493.95;154917;1098;103255;-78
2021/08/09 10:54:41;;;;;;;1.60;1.20;;;;;;;23.72;54.03;100479.98;154330;1098;103150;-75
2021/08/09 10:57:44;;;;;;;2.03;1.40;;;;;;;23.69;52.03;100485.88;153966;1100;103122;-76
2021/08/09 11:00:57;;;;;;;3.07;1.30;;;;;;;23.66;52.97;100481.74;154077;1100;103203;-76
2021/08/09 11:04:16;;;;;;;2.10;1.10;;;;;;;23.71;53.19;100484.60;154356;1093;103125;-75
2021/08/09 11:07:19;;;;;;;1.67;1.20;;;;;;;23.78;51.50;100489.11;154634;1098;103569;-78
2021/08/09 11:11:12;;;;;;;1.40;1.13;;;;;;;23.82;52.65;100496.59;154068;1098;103419;-77
2021/08/09 11:14:15;;;;;;;1.80;1.20;;;;;;;23.96;52.77;100494.50;153883;1101;103124;-78
2021/08/09 11:17:18;;;;;;;2.05;1.10;;;;;;;23.99;51.28;100493.19;154043;1100;103191;-78
2021/08/09 11:20:24;;;;;;;1.53;1.07;;;;;;;23.98;50.41;100494.24;154297;1100;103123;-76
2021/08/09 11:23:27;;;;;;;1.65;0.90;;;;;;;23.95;51.03;100500.19;154128;1093;103355;-75
2021/08/09 11:26:35;;;;;;;1.40;0.90;;;;;;;23.96;51.49;100499.10;153985;1097;103132;-75
2021/08/09 11:29:58;;;;;;;1.55;1.00;;;;;;;23.94;50.10;100495.78;154171;1096;103126;-77
2021/08/09 11:33:00;;;;;;;1.57;0.90;;;;;;;23.97;51.38;100498.05;153970;1101;103131;-76
2021/08/09 11:36:05;;;;;;;1.00;0.80;;;;;;;23.86;47.24;100484.16;153964;1101;103187;-75
2021/08/09 11:39:09;;;;;;;1.27;0.90;;;;;;;23.85;48.65;100496.14;153987;1093;103284;-75
2021/08/09 11:42:11;;;;;;;1.10;0.70;;;;;;;23.85;47.00;100504.31;154052;1096;103109;-76
2021/08/09 11:45:26;;;;;;;1.63;0.80;;;;;;;23.86;49.43;100497.78;154074;1093;103204;-77
2021/08/09 11:48:32;;;;;;;1.23;0.80;;;;;;;23.90;50.19;100498.14;154000;1093;103199;-75
2021/08/09 11:51:34;;;;;;;1.18;0.75;;;;;;;23.90;49.60;100501.73;154021;1100;103125;-79
2021/08/09 11:54:41;;;;;;;1.48;0.70;;;;;;;23.89;48.60;100494.60;154005;1093;103378;-78
2021/08/09 11:57:44;;;;;;;1.18;0.60;;;;;;;23.90;45.17;100504.45;154011;1094;103129;-85
2021/08/09 12:00:48;;;;;;;2.60;0.70;;;;;;;23.89;47.68;100502.78;154163;1093;103112;-79
2021/08/09 12:04:07;;;;;;;5.33;0.90;;;;;;;23.96;48.92;100501.83;153949;1100;103224;-76
2021/08/09 12:07:20;;;;;;;1.93;0.70;;;;;;;23.98;48.05;100500.55;154023;1092;103143;-76
2021/08/09 12:10:25;;;;;;;2.00;0.60;;;;;;;23.98;44.11;100505.14;153973;1093;103253;-77
2021/08/09 12:13:31;;;;;;;1.03;0.60;;;;;;;23.94;46.24;100507.51;153954;1100;103125;-75
2021/08/09 12:16:47;;;;;;;1.08;0.63;;;;;;;23.95;47.61;100502.91;153961;1093;103214;-81
2021/08/09 12:19:52;;;;;;;0.87;0.70;;;;;;;23.97;48.32;100506.23;154080;1093;103495;-78
2021/08/09 12:22:54;;;;;;;1.17;0.70;;;;;;;23.97;45.87;100511.68;154130;1100;103158;-80
2021/08/09 12:25:57;;;;;;;0.90;0.70;;;;;;;23.95;47.25;100511.09;154078;1100;103266;-81
2021/08/09 12:29:02;;;;;;;4.00;0.80;;;;;;;23.93;45.80;100508.59;154214;1100;103514;-76
2021/08/09 12:32:15;;;;;;;1.13;0.65;;;;;;;23.89;46.23;100502.78;153985;1100;103118;-76
2021/08/09 12:35:32;;;;;;;0.70;0.60;;;;;;;23.93;47.58;100500.41;153982;1093;103202;-80
2021/08/09 12:38:40;;;;;;;1.95;1.00;;;;;;;23.97;47.53;100492.60;154121;1100;103144;-81
2021/08/09 12:41:43;;;;;;;1.00;0.90;;;;;;;24.00;47.09;100503.02;154158;1100;103297;-81
2021/08/09 12:44:47;;;;;;;1.20;0.90;;;;;;;24.02;47.22;100504.45;154121;1093;103122;-81
2021/08/09 12:47:49;;;;;;;1.00;0.67;;;;;;;24.09;47.21;100507.05;154137;1100;103207;-79
2021/08/09 13:49:11;;;;;;;1.10;0.70;;;;;;;23.98;44.47;100496.97;154188;1090;103107;-78
2021/08/09 13:52:16;;;;;;;0.97;0.80;;;;;;;24.02;44.64;100499.00;153974;1095;103279;-78
2021/08/09 13:55:21;;;;;;;0.90;0.70;;;;;;;24.08;45.37;100489.05;153959;1101;103240;-79
2021/08/09 13:58:26;;;;;;;1.67;0.80;;;;;;;24.12;44.94;100486.69;153978;1095;103196;-79
2021/08/09 14:01:31;;;;;;;2.10;0.73;;;;;;;24.13;44.46;100482.88;154003;1101;103203;-79
2021/08/09 14:04:36;;;;;;;2.10;0.60;;;;;;;24.12;43.85;100490.23;154071;1097;103689;-79
2021/08/09 14:07:41;;;;;;;1.50;0.80;;;;;;;24.10;44.64;100484.19;154115;1096;103218;-80
2021/08/09 14:10:46;;;;;;;1.17;0.90;;;;;;;24.12;44.80;100481.23;154021;1096;103184;-79
2021/08/09 14:13:51;;;;;;;0.93;0.63;;;;;;;24.11;44.46;100483.11;154093;1101;103206;-79
2021/08/09 14:16:55;;;;;;;0.70;0.70;;;;;;;24.13;44.22;100480.97;154030;1095;103263;-79
2021/08/09 14:20:02;;;;;;;2.43;0.90;;;;;;;24.14;43.64;100488.09;154087;1096;103126;-79
2021/08/09 14:23:09;;;;;;;3.27;0.87;;;;;;;24.14;43.64;100482.65;154134;1101;103272;-79
2021/08/09 14:26:16;;;;;;;1.10;0.80;;;;;;;24.12;43.49;100483.96;154102;1096;103129;-79
2021/08/09 14:29:21;;;;;;;1.10;0.60;;;;;;;24.09;41.86;100475.16;154095;1096;103149;-79
2021/08/09 14:32:26;;;;;;;0.90;0.67;;;;;;;24.07;43.13;100479.20;153979;1101;103177;-79
2021/08/09 14:35:31;;;;;;;0.67;0.60;;;;;;;24.08;43.76;100472.70;153971;1101;103241;-79
2021/08/09 14:38:37;;;;;;;0.80;0.60;;;;;;;24.11;43.39;100466.75;153955;1101;103144;-79
2021/08/09 14:41:42;;;;;;;1.00;0.60;;;;;;;24.08;42.56;100475.42;153926;1095;103307;-79
2021/08/09 14:44:47;;;;;;;1.20;0.85;;;;;;;24.03;42.27;100473.39;153987;1095;103222;-78
2021/08/09 14:47:52;;;;;;;0.95;0.70;;;;;;;24.01;42.04;100464.63;153971;1101;103292;-79
2021/08/09 14:50:57;;;;;;;1.77;0.80;;;;;;;24.04;43.42;100476.97;153983;1101;103130;-79
2021/08/09 14:54:02;;;;;;;1.70;0.63;;;;;;;24.03;42.29;100487.02;153941;1097;103122;-79
2021/08/09 14:57:09;;;;;;;0.90;0.67;;;;;;;24.02;42.14;100481.80;153957;1096;103222;-80
2021/08/09 15:00:23;;;;;;;1.20;1.10;;;;;;;24.03;43.04;100478.84;153936;1096;103142;-78